createdAt,value
2019-02-22T00:00:47.387Z,58.80
2019-02-22T00:01:53.508Z,58.20
2019-02-22T00:02:58.267Z,58.20
2019-02-22T00:04:02.846Z,58.20
2019-02-22T00:05:07.467Z,57.60
2019-02-22T00:06:12.004Z,58.20
2019-02-22T00:07:16.491Z,58.20
2019-02-22T00:08:21.295Z,58.20
2019-02-22T00:09:25.803Z,58.20
2019-02-22T00:10:30.276Z,58.20
2019-02-22T00:11:34.816Z,58.20
2019-02-22T00:12:39.307Z,58.20
2019-02-22T00:13:43.825Z,58.20
2019-02-22T00:14:48.439Z,58.20
2019-02-22T00:15:53.277Z,58.20
2019-02-22T00:16:57.800Z,58.10
2019-02-22T00:18:02.288Z,58.00
2019-02-22T00:19:06.791Z,58.00
2019-02-22T00:20:11.260Z,58.10
2019-02-22T00:21:16.033Z,58.10
2019-02-22T00:22:20.496Z,57.90
2019-02-22T00:23:25.000Z,58.00
2019-02-22T00:24:29.495Z,57.90
2019-02-22T00:25:34.983Z,58.00
2019-02-22T00:26:39.565Z,58.00
2019-02-22T00:27:44.043Z,57.90
2019-02-22T00:28:49.109Z,58.00
2019-02-22T00:29:53.630Z,58.00
2019-02-22T00:30:59.533Z,57.90
2019-02-22T00:32:04.016Z,58.00
2019-02-22T00:33:08.516Z,58.00
2019-02-22T00:34:13.018Z,58.10
2019-02-22T00:35:17.652Z,58.00
2019-02-22T00:36:22.213Z,58.10
2019-02-22T00:37:26.860Z,58.10
2019-02-22T00:38:31.394Z,58.10
2019-02-22T00:39:37.243Z,58.00
2019-02-22T00:40:41.749Z,58.00
2019-02-22T00:41:46.481Z,58.00
2019-02-22T00:42:51.000Z,58.00
2019-02-22T00:43:55.539Z,58.00
2019-02-22T00:45:00.013Z,57.90
2019-02-22T00:46:04.522Z,57.90
2019-02-22T00:47:08.980Z,58.00
2019-02-22T00:48:13.476Z,58.20
2019-02-22T00:49:17.941Z,58.20
2019-02-22T00:50:22.721Z,58.30
2019-02-22T00:51:27.207Z,58.60
2019-02-22T00:52:31.664Z,58.60
2019-02-22T00:53:36.223Z,58.80
2019-02-22T00:54:40.699Z,59.00
2019-02-22T00:55:45.258Z,59.20
2019-02-22T00:56:49.739Z,59.40
2019-02-22T00:57:54.193Z,59.50
2019-02-22T00:58:58.691Z,59.50
2019-02-22T01:00:03.559Z,59.60
2019-02-22T01:01:08.025Z,59.70
2019-02-22T01:02:14.043Z,59.80
2019-02-22T01:03:18.539Z,60.10
2019-02-22T01:04:23.017Z,60.20
2019-02-22T01:05:27.495Z,60.20
2019-02-22T01:06:31.983Z,60.50
2019-02-22T01:07:36.456Z,60.60
2019-02-22T01:08:40.937Z,61.00
2019-02-22T01:09:45.499Z,61.10
2019-02-22T01:10:49.982Z,60.90
2019-02-22T01:11:54.537Z,61.20
2019-02-22T01:12:59.003Z,61.40
2019-02-22T01:14:03.536Z,61.70
2019-02-22T01:15:08.080Z,61.90
2019-02-22T01:16:12.570Z,61.90
2019-02-22T01:17:17.045Z,61.90
2019-02-22T01:18:21.534Z,62.00
2019-02-22T01:19:26.843Z,62.40
2019-02-22T01:20:31.353Z,62.30
2019-02-22T01:21:35.840Z,62.50
2019-02-22T01:22:40.312Z,63.50
2019-02-22T01:23:44.787Z,63.50
2019-02-22T01:24:49.326Z,63.40
2019-02-22T01:25:54.814Z,63.10
2019-02-22T01:26:59.285Z,63.20
2019-02-22T01:28:03.927Z,63.90
2019-02-22T01:29:08.455Z,63.90
2019-02-22T01:30:13.021Z,63.50
2019-02-22T01:31:17.514Z,63.40
2019-02-22T01:32:21.991Z,63.30
2019-02-22T01:33:26.468Z,63.40
2019-02-22T01:34:30.963Z,63.50
2019-02-22T01:35:35.449Z,63.50
2019-02-22T01:36:39.995Z,64.10
2019-02-22T01:37:44.544Z,63.70
2019-02-22T01:38:49.059Z,63.70
2019-02-22T01:39:53.564Z,63.90
2019-02-22T01:40:58.043Z,64.00
2019-02-22T01:42:02.540Z,64.00
2019-02-22T01:43:07.014Z,64.60
2019-02-22T01:44:23.841Z,64.80
2019-02-22T01:45:28.323Z,64.10
2019-02-22T01:46:32.796Z,64.10
2019-02-22T01:47:37.555Z,64.30
2019-02-22T01:48:42.027Z,64.40
2019-02-22T01:49:46.541Z,64.30
2019-02-22T01:50:51.036Z,64.70
2019-02-22T01:51:55.517Z,64.60
2019-02-22T01:53:00.010Z,64.60
2019-02-22T01:54:04.522Z,64.60
2019-02-22T01:55:09.149Z,64.70
2019-02-22T01:56:14.012Z,65.50
2019-02-22T01:57:18.501Z,65.30
2019-02-22T01:58:23.024Z,65.00
2019-02-22T01:59:27.494Z,65.30
2019-02-22T02:00:32.154Z,65.30
2019-02-22T02:01:36.772Z,65.70
2019-02-22T02:02:41.303Z,65.30
2019-02-22T02:03:45.913Z,65.30
2019-02-22T02:04:50.383Z,65.40
2019-02-22T02:05:54.866Z,65.70
2019-02-22T02:06:59.448Z,66.40
2019-02-22T02:08:04.050Z,65.40
2019-02-22T02:09:08.892Z,65.30
2019-02-22T02:10:13.379Z,65.90
2019-02-22T02:11:17.870Z,65.50
2019-02-22T02:12:22.338Z,65.50
2019-02-22T02:13:26.813Z,65.50
2019-02-22T02:14:31.316Z,65.60
2019-02-22T02:15:35.788Z,65.60
2019-02-22T02:16:40.281Z,66.00
2019-02-22T02:17:44.765Z,65.80
2019-02-22T02:18:49.548Z,65.70
2019-02-22T02:19:54.048Z,65.80
2019-02-22T02:20:58.527Z,65.70
2019-02-22T02:22:03.029Z,65.80
2019-02-22T02:23:07.537Z,66.00
2019-02-22T02:24:12.000Z,65.80
2019-02-22T02:25:16.486Z,66.00
2019-02-22T02:26:20.953Z,65.90
2019-02-22T02:27:27.643Z,66.50
2019-02-22T02:28:32.143Z,66.70
2019-02-22T02:29:36.636Z,66.30
2019-02-22T02:30:41.456Z,66.30
2019-02-22T02:31:45.959Z,67.00
2019-02-22T02:32:50.436Z,66.70
2019-02-22T02:33:54.926Z,66.50
2019-02-22T02:34:59.411Z,66.70
2019-02-22T02:36:04.040Z,67.00
2019-02-22T02:37:10.242Z,66.80
2019-02-22T02:38:14.807Z,66.80
2019-02-22T02:39:19.308Z,67.60
2019-02-22T02:40:23.867Z,67.00
2019-02-22T02:41:28.419Z,67.10
2019-02-22T02:42:32.938Z,67.10
2019-02-22T02:43:38.711Z,67.00
2019-02-22T02:44:45.051Z,67.40
2019-02-22T02:45:49.521Z,67.30
2019-02-22T02:46:54.373Z,67.40
2019-02-22T02:47:58.854Z,67.40
2019-02-22T02:49:03.418Z,67.50
2019-02-22T02:50:08.546Z,67.40
2019-02-22T02:51:14.071Z,67.50
2019-02-22T02:52:18.583Z,67.50
2019-02-22T02:53:23.104Z,67.80
2019-02-22T02:54:27.591Z,67.80
2019-02-22T02:55:34.037Z,67.70
2019-02-22T02:56:38.595Z,67.70
2019-02-22T02:57:43.092Z,68.00
2019-02-22T02:58:47.685Z,68.10
2019-02-22T02:59:52.152Z,68.80
2019-02-22T03:00:56.791Z,68.50
2019-02-22T03:02:02.361Z,68.40
2019-02-22T03:03:06.841Z,68.40
2019-02-22T03:04:11.328Z,68.20
2019-02-22T03:05:15.889Z,69.20
2019-02-22T03:06:30.971Z,68.70
2019-02-22T03:07:45.264Z,68.70
2019-02-22T03:08:49.797Z,68.40
2019-02-22T03:09:54.335Z,68.40
2019-02-22T03:10:58.825Z,68.50
2019-02-22T03:12:03.334Z,68.80
2019-02-22T03:13:07.880Z,68.60
2019-02-22T03:14:12.362Z,68.70
2019-02-22T03:15:18.643Z,69.10
2019-02-22T03:16:23.150Z,69.40
2019-02-22T03:17:30.032Z,69.40
2019-02-22T03:18:34.647Z,69.80
2019-02-22T03:19:39.153Z,69.80
2019-02-22T03:20:43.642Z,69.70
2019-02-22T03:21:48.106Z,69.50
2019-02-22T03:22:52.988Z,69.80
2019-02-22T03:23:57.478Z,70.20
2019-02-22T03:25:01.993Z,69.90
2019-02-22T03:26:06.549Z,69.90
2019-02-22T03:27:11.058Z,70.00
2019-02-22T03:28:15.619Z,70.00
2019-02-22T03:29:20.106Z,70.20
2019-02-22T03:30:24.606Z,70.80
2019-02-22T03:31:29.089Z,70.50
2019-02-22T03:32:33.567Z,70.80
2019-02-22T03:33:38.045Z,71.00
2019-02-22T03:34:42.594Z,71.10
2019-02-22T03:35:47.077Z,71.20
2019-02-22T03:36:51.568Z,71.80
2019-02-22T03:37:56.074Z,72.80
2019-02-22T03:39:00.591Z,72.40
2019-02-22T03:40:07.152Z,72.40
2019-02-22T03:41:11.642Z,72.70
2019-02-22T03:42:16.176Z,72.30
2019-02-22T03:43:20.673Z,73.40
2019-02-22T03:44:25.189Z,73.20
2019-02-22T03:45:29.731Z,73.20
2019-02-22T03:46:34.901Z,73.40
2019-02-22T03:47:39.395Z,72.90
2019-02-22T03:48:44.065Z,73.00
2019-02-22T03:49:48.572Z,73.10
2019-02-22T03:50:53.062Z,74.20
2019-02-22T03:51:58.134Z,73.70
2019-02-22T03:53:04.269Z,74.40
2019-02-22T03:54:08.751Z,74.00
2019-02-22T03:55:13.413Z,74.30
2019-02-22T03:56:17.960Z,75.00
2019-02-22T03:57:22.544Z,74.80
2019-02-22T03:58:27.064Z,75.30
2019-02-22T03:59:31.620Z,75.40
2019-02-22T04:00:36.833Z,74.90
2019-02-22T04:01:41.598Z,75.40
2019-02-22T04:02:46.074Z,75.20
2019-02-22T04:03:50.749Z,75.80
2019-02-22T04:04:56.575Z,75.40
2019-02-22T04:06:01.656Z,76.10
2019-02-22T04:07:06.230Z,76.30
2019-02-22T04:08:10.770Z,75.80
2019-02-22T04:09:15.251Z,76.40
2019-02-22T04:10:19.751Z,76.50
2019-02-22T04:11:24.405Z,76.80
2019-02-22T04:12:28.945Z,76.60
2019-02-22T04:13:33.433Z,76.70
2019-02-22T04:14:38.214Z,76.60
2019-02-22T04:15:42.834Z,76.40
2019-02-22T04:16:47.394Z,76.40
2019-02-22T04:17:51.868Z,76.80
2019-02-22T04:18:58.944Z,77.30
2019-02-22T04:20:03.620Z,77.00
2019-02-22T04:21:08.130Z,77.30
2019-02-22T04:22:12.615Z,77.10
2019-02-22T04:23:18.632Z,76.70
2019-02-22T04:24:23.117Z,77.10
2019-02-22T04:25:28.093Z,76.70
2019-02-22T04:26:32.590Z,76.80
2019-02-22T04:27:37.103Z,77.30
2019-02-22T04:28:41.609Z,77.00
2019-02-22T04:29:46.173Z,76.80
2019-02-22T04:30:50.645Z,76.80
2019-02-22T04:31:55.140Z,77.10
2019-02-22T04:32:59.626Z,77.30
2019-02-22T04:34:04.113Z,77.50
2019-02-22T04:35:08.678Z,77.10
2019-02-22T04:36:13.171Z,77.20
2019-02-22T04:37:17.675Z,77.40
2019-02-22T04:38:22.162Z,77.30
2019-02-22T04:39:26.654Z,77.50
2019-02-22T04:40:31.205Z,77.50
2019-02-22T04:41:35.693Z,77.10
2019-02-22T04:42:40.192Z,77.10
2019-02-22T04:43:44.659Z,77.50
2019-02-22T04:44:49.720Z,77.40
2019-02-22T04:45:54.196Z,77.60
2019-02-22T04:46:58.722Z,77.50
2019-02-22T04:48:03.216Z,77.80
2019-02-22T04:49:07.925Z,77.70
2019-02-22T04:50:12.443Z,77.80
2019-02-22T04:51:19.330Z,77.50
2019-02-22T04:52:24.882Z,77.30
2019-02-22T04:53:29.383Z,77.40
2019-02-22T04:54:33.884Z,77.40
2019-02-22T04:55:38.547Z,77.50
2019-02-22T04:56:43.057Z,77.50
2019-02-22T04:57:47.541Z,77.60
2019-02-22T04:58:52.030Z,78.00
2019-02-22T04:59:58.608Z,77.80
2019-02-22T05:01:03.134Z,77.80
2019-02-22T05:02:07.672Z,77.70
2019-02-22T05:03:12.184Z,78.50
2019-02-22T05:04:16.765Z,77.70
2019-02-22T05:05:21.312Z,77.80
2019-02-22T05:06:25.801Z,78.10
2019-02-22T05:07:31.785Z,77.80
2019-02-22T05:08:36.279Z,77.90
2019-02-22T05:09:40.785Z,77.70
2019-02-22T05:10:45.265Z,77.80
2019-02-22T05:11:49.845Z,78.00
2019-02-22T05:12:54.425Z,78.20
2019-02-22T05:13:58.895Z,77.90
2019-02-22T05:15:12.440Z,78.00
2019-02-22T05:16:10.186Z,78.10
2019-02-22T05:17:14.674Z,78.40
2019-02-22T05:18:19.166Z,78.20
2019-02-22T05:19:23.737Z,78.20
2019-02-22T05:20:28.236Z,78.40
2019-02-22T05:21:32.716Z,78.40
2019-02-22T05:22:37.193Z,78.20
2019-02-22T05:23:41.688Z,78.30
2019-02-22T05:24:46.182Z,78.20
2019-02-22T05:25:50.659Z,78.10
2019-02-22T05:26:55.232Z,78.20
2019-02-22T05:27:59.697Z,78.20
2019-02-22T05:29:04.283Z,78.10
2019-02-22T05:30:09.152Z,78.40
2019-02-22T05:31:13.742Z,78.40
2019-02-22T05:32:18.205Z,78.30
2019-02-22T05:33:23.087Z,78.50
2019-02-22T05:34:28.073Z,78.30
2019-02-22T05:35:32.569Z,78.40
2019-02-22T05:36:37.116Z,79.10
2019-02-22T05:37:41.602Z,78.40
2019-02-22T05:38:46.250Z,78.50
2019-02-22T05:39:50.796Z,78.40
2019-02-22T05:40:55.314Z,78.30
2019-02-22T05:42:00.219Z,78.40
2019-02-22T05:43:04.747Z,78.40
2019-02-22T05:44:09.303Z,78.50
2019-02-22T05:45:13.782Z,78.40
2019-02-22T05:46:18.287Z,79.40
2019-02-22T05:47:22.780Z,78.50
2019-02-22T05:48:27.353Z,78.70
2019-02-22T05:49:31.847Z,78.50
2019-02-22T05:50:36.398Z,78.90
2019-02-22T05:51:40.901Z,78.50
2019-02-22T05:52:45.723Z,78.60
2019-02-22T05:53:50.294Z,78.50
2019-02-22T05:54:54.777Z,78.40
2019-02-22T05:55:59.383Z,78.80
2019-02-22T05:57:03.848Z,78.70
2019-02-22T05:58:08.355Z,78.40
2019-02-22T05:59:12.839Z,78.50
2019-02-22T06:00:17.998Z,78.40
2019-02-22T06:01:22.493Z,78.40
2019-02-22T06:02:26.996Z,78.40
2019-02-22T06:03:31.486Z,78.40
2019-02-22T06:04:37.229Z,78.40
2019-02-22T06:05:41.705Z,78.50
2019-02-22T06:06:46.216Z,78.50
2019-02-22T06:07:50.829Z,78.70
2019-02-22T06:08:55.320Z,78.60
2019-02-22T06:09:59.808Z,78.70
2019-02-22T06:11:04.371Z,78.70
2019-02-22T06:12:08.929Z,78.80
2019-02-22T06:13:13.446Z,78.60
2019-02-22T06:14:17.954Z,78.80
2019-02-22T06:15:23.623Z,79.10
2019-02-22T06:16:28.134Z,79.00
2019-02-22T06:17:32.703Z,79.00
2019-02-22T06:18:37.228Z,79.30
2019-02-22T06:19:41.723Z,79.20
2019-02-22T06:20:46.237Z,79.20
2019-02-22T06:21:50.805Z,79.50
2019-02-22T06:22:55.280Z,79.40
2019-02-22T06:24:02.701Z,79.20
2019-02-22T06:25:07.431Z,79.20
2019-02-22T06:26:12.009Z,79.40
2019-02-22T06:27:16.495Z,79.40
2019-02-22T06:28:21.126Z,79.50
2019-02-22T06:29:25.611Z,79.50
2019-02-22T06:30:30.113Z,79.60
2019-02-22T06:31:34.613Z,80.00
2019-02-22T06:32:41.978Z,79.80
2019-02-22T06:33:45.346Z,80.00
2019-02-22T06:34:49.902Z,80.10
2019-02-22T06:35:54.385Z,80.00
2019-02-22T06:37:02.078Z,80.00
2019-02-22T06:38:06.275Z,80.10
2019-02-22T06:39:10.814Z,80.10
2019-02-22T06:40:15.349Z,80.20
2019-02-22T06:41:19.808Z,80.20
2019-02-22T06:42:24.328Z,80.50
2019-02-22T06:43:28.851Z,80.30
2019-02-22T06:44:35.205Z,80.50
2019-02-22T06:45:40.047Z,80.50
2019-02-22T06:46:46.135Z,80.40
2019-02-22T06:47:52.249Z,80.60
2019-02-22T06:48:56.795Z,80.80
2019-02-22T06:50:01.381Z,80.80
2019-02-22T06:51:05.891Z,80.60
2019-02-22T06:52:10.391Z,80.60
2019-02-22T06:53:14.971Z,81.00
2019-02-22T06:54:19.511Z,80.70
2019-02-22T06:55:23.987Z,80.90
2019-02-22T06:56:28.528Z,80.90
2019-02-22T06:57:32.999Z,80.90
2019-02-22T06:58:37.582Z,80.80
2019-02-22T06:59:42.122Z,80.90
2019-02-22T07:00:46.637Z,81.00
2019-02-22T07:01:51.129Z,81.00
2019-02-22T07:02:55.604Z,81.20
2019-02-22T07:04:00.161Z,81.40
2019-02-22T07:05:06.400Z,81.20
2019-02-22T07:06:10.906Z,81.40
2019-02-22T07:07:15.531Z,81.40
2019-02-22T07:08:21.006Z,81.30
2019-02-22T07:09:25.575Z,81.40
2019-02-22T07:10:31.975Z,81.50
2019-02-22T07:11:47.090Z,81.20
2019-02-22T07:12:56.697Z,81.30
2019-02-22T07:13:59.488Z,81.20
2019-02-22T07:15:05.372Z,81.20
2019-02-22T07:16:09.948Z,81.40
2019-02-22T07:17:14.473Z,81.90
2019-02-22T07:18:19.439Z,82.20
2019-02-22T07:19:24.092Z,81.50
2019-02-22T07:20:28.578Z,81.50
2019-02-22T07:21:49.242Z,82.40
2019-02-22T07:22:39.327Z,81.70
2019-02-22T07:23:44.126Z,81.50
2019-02-22T07:24:48.630Z,81.40
2019-02-22T07:25:53.169Z,81.60
2019-02-22T07:26:57.711Z,81.50
2019-02-22T07:28:02.239Z,81.70
2019-02-22T07:29:06.729Z,81.90
2019-02-22T07:30:11.934Z,81.60
2019-02-22T07:31:16.541Z,82.00
2019-02-22T07:32:21.597Z,81.80
2019-02-22T07:33:28.161Z,81.80
2019-02-22T07:34:32.721Z,81.70
2019-02-22T07:35:37.188Z,81.70
2019-02-22T07:36:41.688Z,82.60
2019-02-22T07:37:46.176Z,81.80
2019-02-22T07:38:51.934Z,81.80
2019-02-22T07:39:56.402Z,81.80
2019-02-22T07:41:00.916Z,81.70
2019-02-22T07:42:05.467Z,81.90
2019-02-22T07:43:10.800Z,81.80
2019-02-22T07:44:15.292Z,81.90
2019-02-22T07:45:19.945Z,81.90
2019-02-22T07:46:24.476Z,82.00
2019-02-22T07:47:29.354Z,82.00
2019-02-22T07:48:33.923Z,82.00
2019-02-22T07:49:38.778Z,82.10
2019-02-22T07:50:43.274Z,82.00
2019-02-22T07:51:47.837Z,82.10
2019-02-22T07:52:52.368Z,82.20
2019-02-22T07:53:56.857Z,82.00
2019-02-22T07:55:01.340Z,82.00
2019-02-22T07:56:05.849Z,82.00
2019-02-22T07:57:10.354Z,82.10
2019-02-22T07:58:15.157Z,82.90
2019-02-22T07:59:19.631Z,82.80
2019-02-22T08:00:24.111Z,82.10
2019-02-22T08:01:28.605Z,82.10
2019-02-22T08:02:33.204Z,82.00
2019-02-22T08:03:37.722Z,82.00
2019-02-22T08:04:42.207Z,82.10
2019-02-22T08:05:46.685Z,82.00
2019-02-22T08:06:51.235Z,81.90
2019-02-22T08:07:55.763Z,82.10
2019-02-22T08:09:00.316Z,82.10
2019-02-22T08:10:05.833Z,82.00
2019-02-22T08:11:10.512Z,82.20
2019-02-22T08:12:15.652Z,82.10
2019-02-22T08:13:20.366Z,82.10
2019-02-22T08:14:24.923Z,82.20
2019-02-22T08:15:29.498Z,82.30
2019-02-22T08:16:33.989Z,82.20
2019-02-22T08:17:38.718Z,82.10
2019-02-22T08:18:43.361Z,82.10
2019-02-22T08:19:48.239Z,82.20
2019-02-22T08:20:52.745Z,82.10
2019-02-22T08:21:57.360Z,82.00
2019-02-22T08:23:02.048Z,82.10
2019-02-22T08:24:06.585Z,81.90
2019-02-22T08:25:11.335Z,82.10
2019-02-22T08:26:17.273Z,82.10
2019-02-22T08:27:21.917Z,82.10
2019-02-22T08:28:26.411Z,82.10
2019-02-22T08:29:30.911Z,82.10
2019-02-22T08:30:35.470Z,82.10
2019-02-22T08:31:39.982Z,82.10
2019-02-22T08:32:44.628Z,82.20
2019-02-22T08:33:49.115Z,82.20
2019-02-22T08:34:53.690Z,82.20
2019-02-22T08:35:58.181Z,82.10
2019-02-22T08:37:02.658Z,82.40
2019-02-22T08:38:07.161Z,82.40
2019-02-22T08:39:11.736Z,82.40
2019-02-22T08:40:16.282Z,82.40
2019-02-22T08:41:21.151Z,82.50
2019-02-22T08:42:25.660Z,82.50
2019-02-22T08:43:31.857Z,82.50
2019-02-22T08:44:36.499Z,82.50
2019-02-22T08:45:41.021Z,82.60
2019-02-22T08:46:45.803Z,82.60
2019-02-22T08:47:50.771Z,82.60
2019-02-22T08:48:55.278Z,82.60
2019-02-22T08:49:59.774Z,82.60
2019-02-22T08:51:05.642Z,82.60
2019-02-22T08:52:10.399Z,82.60
2019-02-22T08:53:14.911Z,82.50
2019-02-22T08:54:19.412Z,82.40
2019-02-22T08:55:23.914Z,82.50
2019-02-22T08:56:28.449Z,82.60
2019-02-22T08:57:32.955Z,82.60
2019-02-22T08:58:37.453Z,82.60
2019-02-22T08:59:41.941Z,82.70
2019-02-22T09:00:46.447Z,82.70
2019-02-22T09:01:51.402Z,82.80
2019-02-22T09:02:57.578Z,82.70
2019-02-22T09:04:02.063Z,82.60
2019-02-22T09:05:08.497Z,82.60
2019-02-22T09:06:12.970Z,82.70
2019-02-22T09:07:17.484Z,82.60
2019-02-22T09:08:22.159Z,82.60
2019-02-22T09:09:28.763Z,82.60
2019-02-22T09:10:33.274Z,82.60
2019-02-22T09:11:37.807Z,82.40
2019-02-22T09:12:42.302Z,82.40
2019-02-22T09:13:47.426Z,82.40
2019-02-22T09:14:51.994Z,82.40
2019-02-22T09:15:56.477Z,82.30
2019-02-22T09:17:01.260Z,82.40
2019-02-22T09:18:05.891Z,82.60
2019-02-22T09:19:10.491Z,82.30
2019-02-22T09:20:14.988Z,82.30
2019-02-22T09:21:19.877Z,82.10
2019-02-22T09:22:24.337Z,82.30
2019-02-22T09:23:28.864Z,82.10
2019-02-22T09:24:33.411Z,82.00
2019-02-22T09:25:38.252Z,82.00
2019-02-22T09:26:42.746Z,82.00
2019-02-22T09:27:47.211Z,82.00
2019-02-22T09:28:51.820Z,82.10
2019-02-22T09:29:59.058Z,81.70
2019-02-22T09:31:02.486Z,81.80
2019-02-22T09:32:07.898Z,81.70
2019-02-22T09:33:12.367Z,81.70
2019-02-22T09:34:16.851Z,81.50
2019-02-22T09:35:21.440Z,81.30
2019-02-22T09:36:25.983Z,81.20
2019-02-22T09:37:30.484Z,81.00
2019-02-22T09:38:34.990Z,80.90
2019-02-22T09:39:39.552Z,80.90
2019-02-22T09:40:44.112Z,80.90
2019-02-22T09:41:48.638Z,80.90
2019-02-22T09:42:53.135Z,80.90
2019-02-22T09:43:57.771Z,80.80
2019-02-22T09:45:03.248Z,80.80
2019-02-22T09:46:07.889Z,80.90
2019-02-22T09:47:19.534Z,81.10
2019-02-22T09:48:25.089Z,80.90
2019-02-22T09:49:29.658Z,80.80
2019-02-22T09:50:34.139Z,80.80
2019-02-22T09:51:41.168Z,80.70
2019-02-22T09:52:44.842Z,80.50
2019-02-22T09:53:49.349Z,80.50
2019-02-22T09:54:53.886Z,80.60
2019-02-22T09:55:59.025Z,80.70
2019-02-22T09:57:04.510Z,80.70
2019-02-22T09:58:09.006Z,80.70
2019-02-22T09:59:13.528Z,80.60
2019-02-22T10:00:18.355Z,80.60
2019-02-22T10:01:22.997Z,80.50
2019-02-22T10:02:27.485Z,80.40
2019-02-22T10:03:31.992Z,80.20
2019-02-22T10:04:36.491Z,80.10
2019-02-22T10:05:41.002Z,80.10
2019-02-22T10:06:45.548Z,80.10
2019-02-22T10:07:50.060Z,80.20
2019-02-22T10:08:54.581Z,80.30
2019-02-22T10:09:59.124Z,80.30
2019-02-22T10:11:03.650Z,80.20
2019-02-22T10:12:08.124Z,80.20
2019-02-22T10:13:12.614Z,80.30
2019-02-22T10:14:17.142Z,80.20
2019-02-22T10:15:21.693Z,80.10
2019-02-22T10:16:27.590Z,80.20
2019-02-22T10:17:32.407Z,80.30
2019-02-22T10:18:36.875Z,80.20
2019-02-22T10:19:41.367Z,80.20
2019-02-22T10:20:45.926Z,80.20
2019-02-22T10:21:50.754Z,80.10
2019-02-22T10:22:55.251Z,80.00
2019-02-22T10:23:59.725Z,80.00
2019-02-22T10:25:05.346Z,79.90
2019-02-22T10:26:09.980Z,80.10
2019-02-22T10:27:14.495Z,80.10
2019-02-22T10:28:18.999Z,80.10
2019-02-22T10:29:23.467Z,80.00
2019-02-22T10:30:27.971Z,80.00
2019-02-22T10:31:32.559Z,79.90
2019-02-22T10:32:37.080Z,79.90
2019-02-22T10:33:41.581Z,80.00
2019-02-22T10:34:46.145Z,80.10
2019-02-22T10:35:50.685Z,80.00
2019-02-22T10:36:55.169Z,80.00
2019-02-22T10:37:59.680Z,79.80
2019-02-22T10:39:06.129Z,79.90
2019-02-22T10:40:11.097Z,79.80
2019-02-22T10:41:15.597Z,79.70
2019-02-22T10:42:20.081Z,79.70
2019-02-22T10:43:24.677Z,79.50
2019-02-22T10:44:29.189Z,79.50
2019-02-22T10:45:33.677Z,79.50
2019-02-22T10:46:38.261Z,79.50
2019-02-22T10:47:42.837Z,79.50
2019-02-22T10:48:47.415Z,79.50
2019-02-22T10:49:52.025Z,79.50
2019-02-22T10:50:59.188Z,79.40
2019-02-22T10:52:02.742Z,79.20
2019-02-22T10:53:07.272Z,79.10
2019-02-22T10:54:11.753Z,79.00
2019-02-22T10:55:16.319Z,78.80
2019-02-22T10:56:20.811Z,79.00
2019-02-22T10:57:25.300Z,78.90
2019-02-22T10:58:29.793Z,78.80
2019-02-22T10:59:34.315Z,78.90
2019-02-22T11:00:39.027Z,79.00
2019-02-22T11:01:43.535Z,78.90
2019-02-22T11:02:48.325Z,78.90
2019-02-22T11:03:53.106Z,79.00
2019-02-22T11:04:57.658Z,79.80
2019-02-22T11:06:02.266Z,79.10
2019-02-22T11:07:06.957Z,78.80
2019-02-22T11:08:11.528Z,78.90
2019-02-22T11:09:16.829Z,78.90
2019-02-22T11:10:21.395Z,78.90
2019-02-22T11:11:25.871Z,78.70
2019-02-22T11:12:30.411Z,78.60
2019-02-22T11:13:34.964Z,79.00
2019-02-22T11:14:39.542Z,78.30
2019-02-22T11:15:44.009Z,78.20
2019-02-22T11:16:48.602Z,78.20
2019-02-22T11:17:53.234Z,78.20
2019-02-22T11:18:57.775Z,78.20
2019-02-22T11:20:02.361Z,78.30
2019-02-22T11:21:06.834Z,78.40
2019-02-22T11:22:11.315Z,78.50
2019-02-22T11:23:15.845Z,78.50
2019-02-22T11:24:20.420Z,79.40
2019-02-22T11:25:25.313Z,78.60
2019-02-22T11:26:29.853Z,78.50
2019-02-22T11:27:34.346Z,78.40
2019-02-22T11:28:39.108Z,78.30
2019-02-22T11:29:44.526Z,78.20
2019-02-22T11:30:49.031Z,78.20
2019-02-22T11:31:53.512Z,78.20
2019-02-22T11:32:58.004Z,78.20
2019-02-22T11:34:02.550Z,78.00
2019-02-22T11:35:09.054Z,77.80
2019-02-22T11:36:13.535Z,77.60
2019-02-22T11:37:18.044Z,77.50
2019-02-22T11:38:22.535Z,77.50
2019-02-22T11:39:28.059Z,77.20
2019-02-22T11:40:33.693Z,76.80
2019-02-22T11:41:38.313Z,76.90
2019-02-22T11:42:42.789Z,76.60
2019-02-22T11:43:47.288Z,76.50
2019-02-22T11:44:51.800Z,76.60
2019-02-22T11:45:56.390Z,76.50
2019-02-22T11:47:00.979Z,76.30
2019-02-22T11:48:08.988Z,76.20
2019-02-22T11:49:12.744Z,76.00
2019-02-22T11:50:17.250Z,76.00
2019-02-22T11:51:21.756Z,76.10
2019-02-22T11:52:26.533Z,76.00
2019-02-22T11:53:31.599Z,75.90
2019-02-22T11:54:36.158Z,75.70
2019-02-22T11:55:40.809Z,75.60
2019-02-22T11:56:45.318Z,75.40
2019-02-22T11:57:50.234Z,75.40
2019-02-22T11:58:54.795Z,75.30
2019-02-22T11:59:59.557Z,75.30
2019-02-22T12:01:06.995Z,75.30
2019-02-22T12:02:11.471Z,75.10
2019-02-22T12:03:24.343Z,75.10
2019-02-22T12:04:24.982Z,75.10
2019-02-22T12:05:29.854Z,75.00
2019-02-22T12:06:34.393Z,75.20
2019-02-22T12:07:39.164Z,75.00
2019-02-22T12:08:43.785Z,75.30
2019-02-22T12:09:48.948Z,75.10
2019-02-22T12:10:53.507Z,75.00
2019-02-22T12:11:58.010Z,74.70
2019-02-22T12:13:05.342Z,74.40
2019-02-22T12:14:10.366Z,74.30
2019-02-22T12:15:15.524Z,74.10
2019-02-22T12:16:20.179Z,73.90
2019-02-22T12:17:24.748Z,73.90
2019-02-22T12:18:29.227Z,73.90
2019-02-22T12:19:33.726Z,74.10
2019-02-22T12:20:38.322Z,74.20
2019-02-22T12:21:42.831Z,73.90
2019-02-22T12:22:47.373Z,73.80
2019-02-22T12:23:52.942Z,73.80
2019-02-22T12:24:57.708Z,74.60
2019-02-22T12:26:02.231Z,73.70
2019-02-22T12:27:06.727Z,73.80
2019-02-22T12:28:11.227Z,73.80
2019-02-22T12:29:15.720Z,73.70
2019-02-22T12:30:20.320Z,73.70
2019-02-22T12:31:24.813Z,73.80
2019-02-22T12:32:29.280Z,73.80
2019-02-22T12:33:33.782Z,73.80
2019-02-22T12:34:38.314Z,73.70
2019-02-22T12:35:42.814Z,73.80
2019-02-22T12:36:47.276Z,73.30
2019-02-22T12:37:52.907Z,72.60
2019-02-22T12:38:57.649Z,72.40
2019-02-22T12:40:02.116Z,72.20
2019-02-22T12:41:06.685Z,71.80
2019-02-22T12:42:11.184Z,71.30
2019-02-22T12:43:15.659Z,70.70
2019-02-22T12:44:20.241Z,70.30
2019-02-22T12:45:24.801Z,70.00
2019-02-22T12:46:29.280Z,69.90
2019-02-22T12:47:33.754Z,69.90
2019-02-22T12:48:38.344Z,69.90
2019-02-22T12:49:42.913Z,69.80
2019-02-22T12:50:47.505Z,69.90
2019-02-22T12:51:51.978Z,69.80
2019-02-22T12:52:56.686Z,69.80
2019-02-22T12:54:01.326Z,69.60
2019-02-22T12:55:11.852Z,69.50
2019-02-22T12:56:16.366Z,69.30
2019-02-22T12:57:20.875Z,69.20
2019-02-22T12:58:25.380Z,69.20
2019-02-22T12:59:29.865Z,69.00
2019-02-22T13:00:34.534Z,69.00
2019-02-22T13:01:39.366Z,68.90
2019-02-22T13:02:43.907Z,68.80
2019-02-22T13:03:48.452Z,68.90
2019-02-22T13:04:52.941Z,68.90
2019-02-22T13:05:57.432Z,68.60
2019-02-22T13:07:01.921Z,68.20
2019-02-22T13:08:06.455Z,68.00
2019-02-22T13:09:11.003Z,68.20
2019-02-22T13:10:15.516Z,68.20
2019-02-22T13:11:20.004Z,68.00
2019-02-22T13:12:24.603Z,67.90
2019-02-22T13:13:29.157Z,67.60
2019-02-22T13:14:33.642Z,67.70
2019-02-22T13:15:38.143Z,67.60
2019-02-22T13:16:42.629Z,67.70
2019-02-22T13:17:47.256Z,67.60
2019-02-22T13:18:51.784Z,67.50
2019-02-22T13:19:56.260Z,67.60
2019-02-22T13:21:00.808Z,67.80
2019-02-22T13:22:05.442Z,67.50
2019-02-22T13:23:10.033Z,67.50
2019-02-22T13:24:14.563Z,67.60
2019-02-22T13:25:20.742Z,67.60
2019-02-22T13:26:25.231Z,67.60
2019-02-22T13:27:30.358Z,67.70
2019-02-22T13:28:34.943Z,67.60
2019-02-22T13:29:39.439Z,67.50
2019-02-22T13:30:43.935Z,67.60
2019-02-22T13:31:48.489Z,67.50
2019-02-22T13:32:52.994Z,67.40
2019-02-22T13:33:57.529Z,67.50
2019-02-22T13:35:02.093Z,67.50
2019-02-22T13:36:07.512Z,67.20
2019-02-22T13:37:12.005Z,67.20
2019-02-22T13:38:16.567Z,67.20
2019-02-22T13:39:21.103Z,67.20
2019-02-22T13:40:25.816Z,67.20
2019-02-22T13:41:30.291Z,67.00
2019-02-22T13:42:34.855Z,67.10
2019-02-22T13:43:39.341Z,67.00
2019-02-22T13:44:43.831Z,66.90
2019-02-22T13:45:48.394Z,66.80
2019-02-22T13:46:52.855Z,66.80
2019-02-22T13:47:57.434Z,66.80
2019-02-22T13:49:02.040Z,66.90
2019-02-22T13:50:14.789Z,67.00
2019-02-22T13:51:19.286Z,67.00
2019-02-22T13:52:25.455Z,68.20
2019-02-22T13:53:29.983Z,68.10
2019-02-22T13:54:34.529Z,68.70